createdAt,value
2022-10-10T00:01:26.029Z,76.00
2022-10-10T00:03:54.174Z,76.10
2022-10-10T00:06:21.749Z,76.10
2022-10-10T00:08:49.295Z,76.10
2022-10-10T00:11:20.120Z,76.20
2022-10-10T00:13:47.046Z,76.30
2022-10-10T00:16:14.939Z,76.00
2022-10-10T00:18:42.667Z,76.60
2022-10-10T00:21:10.548Z,76.20
2022-10-10T00:23:38.199Z,76.40
2022-10-10T00:26:09.012Z,76.60
2022-10-10T00:28:38.629Z,76.60
2022-10-10T00:31:10.199Z,76.60
2022-10-10T00:33:37.895Z,76.70
2022-10-10T00:36:06.699Z,76.70
2022-10-10T00:38:33.610Z,76.70
2022-10-10T00:41:01.332Z,76.80
2022-10-10T00:43:29.783Z,76.70
2022-10-10T00:45:57.069Z,76.60
2022-10-10T00:48:35.151Z,76.60
2022-10-10T00:51:14.892Z,76.70
2022-10-10T00:53:46.403Z,76.60
2022-10-10T00:56:17.274Z,76.70
2022-10-10T00:58:48.798Z,76.70
2022-10-10T01:01:15.940Z,76.90
2022-10-10T01:03:42.941Z,77.00
2022-10-10T01:06:10.458Z,77.20
2022-10-10T01:08:37.917Z,77.30
2022-10-10T01:11:41.988Z,77.30
2022-10-10T01:14:36.109Z,77.30
2022-10-10T01:17:25.512Z,77.20
2022-10-10T01:20:14.215Z,77.20
2022-10-10T01:22:46.762Z,77.30
2022-10-10T01:25:29.870Z,77.20
2022-10-10T01:28:18.310Z,77.30
2022-10-10T01:30:48.722Z,77.50
2022-10-10T01:33:22.409Z,77.90
2022-10-10T01:36:04.323Z,78.70
2022-10-10T01:38:50.560Z,78.50
2022-10-10T01:42:25.751Z,78.90
2022-10-10T01:44:53.956Z,79.30
2022-10-10T01:47:22.322Z,79.40
2022-10-10T01:49:56.347Z,79.80
2022-10-10T01:53:01.262Z,80.00
2022-10-10T01:56:06.405Z,80.20
2022-10-10T01:59:00.259Z,80.40
2022-10-10T02:01:41.361Z,80.40
2022-10-10T02:04:51.478Z,80.50
2022-10-10T02:07:36.546Z,80.60
2022-10-10T02:10:07.640Z,80.70
2022-10-10T02:12:36.430Z,81.00
2022-10-10T02:15:14.115Z,81.20
2022-10-10T02:17:45.166Z,81.10
2022-10-10T02:20:18.126Z,81.00
2022-10-10T02:22:47.175Z,80.90
2022-10-10T02:25:14.513Z,80.90
2022-10-10T02:27:59.614Z,80.90
2022-10-10T02:30:26.902Z,81.00
2022-10-10T02:33:01.513Z,81.10
2022-10-10T02:35:35.584Z,81.10
2022-10-10T02:38:05.194Z,81.30
2022-10-10T02:40:35.829Z,81.40
2022-10-10T02:43:07.467Z,81.40
2022-10-10T02:45:35.367Z,81.60
2022-10-10T02:48:03.239Z,81.60
2022-10-10T02:50:31.574Z,81.80
2022-10-10T02:52:59.652Z,81.90
2022-10-10T02:55:27.183Z,82.00
2022-10-10T02:57:54.162Z,82.00
2022-10-10T03:00:21.928Z,82.10
2022-10-10T03:02:49.181Z,82.20
2022-10-10T03:05:16.319Z,82.30
2022-10-10T03:07:43.130Z,82.40
2022-10-10T03:10:10.466Z,82.40
2022-10-10T03:12:37.493Z,82.50
2022-10-10T03:15:11.246Z,82.50
2022-10-10T03:17:38.827Z,82.60
2022-10-10T03:20:06.904Z,82.40
2022-10-10T03:22:33.742Z,82.50
2022-10-10T03:25:00.637Z,82.40
2022-10-10T03:27:27.451Z,82.70
2022-10-10T03:29:54.282Z,82.80
2022-10-10T03:32:21.436Z,82.70
2022-10-10T03:34:48.268Z,82.70
2022-10-10T03:37:15.111Z,82.50
2022-10-10T03:39:41.949Z,82.20
2022-10-10T03:42:08.734Z,82.00
2022-10-10T03:44:35.563Z,81.80
2022-10-10T03:47:02.425Z,82.00
2022-10-10T03:49:29.562Z,82.30
2022-10-10T03:51:56.291Z,82.50
2022-10-10T03:54:23.263Z,82.60
2022-10-10T03:56:50.117Z,82.70
2022-10-10T03:59:16.992Z,82.60
2022-10-10T04:01:43.846Z,82.30
2022-10-10T04:04:10.687Z,82.40
2022-10-10T04:06:37.517Z,82.40
2022-10-10T04:09:04.587Z,82.60
2022-10-10T04:11:31.718Z,82.70
2022-10-10T04:13:58.496Z,82.50
2022-10-10T04:16:25.324Z,82.50
2022-10-10T04:18:52.100Z,82.60
2022-10-10T04:21:18.977Z,82.30
2022-10-10T04:23:45.845Z,82.20
2022-10-10T04:26:12.633Z,82.30
2022-10-10T04:28:39.519Z,82.60
2022-10-10T04:31:07.078Z,82.60
2022-10-10T04:33:33.955Z,82.60
2022-10-10T04:36:00.734Z,82.80
2022-10-10T04:38:29.066Z,82.90
2022-10-10T04:40:55.992Z,83.20
2022-10-10T04:43:22.813Z,83.20
2022-10-10T04:45:49.626Z,83.40
2022-10-10T04:48:16.448Z,83.50
2022-10-10T04:50:43.400Z,83.60
2022-10-10T04:53:10.315Z,83.50
2022-10-10T04:55:37.102Z,83.40
2022-10-10T04:58:03.929Z,83.20
2022-10-10T05:00:30.800Z,83.00
2022-10-10T05:02:57.649Z,82.80
2022-10-10T05:05:24.490Z,82.80
2022-10-10T05:07:55.340Z,82.80
2022-10-10T05:10:23.698Z,82.80
2022-10-10T05:12:51.353Z,82.80
2022-10-10T05:15:19.333Z,82.70
2022-10-10T05:17:46.164Z,82.80
2022-10-10T05:20:13.316Z,82.70
2022-10-10T05:22:40.079Z,82.50
2022-10-10T05:25:07.816Z,82.30
2022-10-10T05:27:34.610Z,82.50
2022-10-10T05:30:01.402Z,82.60
2022-10-10T05:32:28.218Z,82.50
2022-10-10T05:34:54.990Z,82.30
2022-10-10T05:37:22.049Z,82.30
2022-10-10T05:39:53.732Z,82.50
2022-10-10T05:42:21.631Z,82.80
2022-10-10T05:44:48.529Z,83.00
2022-10-10T05:47:16.183Z,83.10
2022-10-10T05:49:43.073Z,83.10
2022-10-10T05:52:10.262Z,83.10
2022-10-10T05:54:37.067Z,83.20
2022-10-10T05:57:03.951Z,83.20
2022-10-10T05:59:31.279Z,83.20
2022-10-10T06:01:58.910Z,83.40
2022-10-10T06:04:25.796Z,83.50
2022-10-10T06:06:52.754Z,83.60
2022-10-10T06:09:19.586Z,83.70
2022-10-10T06:11:46.368Z,83.80
2022-10-10T06:14:13.172Z,83.70
2022-10-10T06:16:40.372Z,83.50
2022-10-10T06:19:10.277Z,83.40
2022-10-10T06:21:39.545Z,83.70
2022-10-10T06:24:06.934Z,83.70
2022-10-10T06:26:33.826Z,83.80
2022-10-10T06:29:00.655Z,83.80
2022-10-10T06:31:27.460Z,83.90
2022-10-10T06:33:54.338Z,84.20
2022-10-10T06:36:21.134Z,84.70
2022-10-10T06:38:47.982Z,85.10
2022-10-10T06:41:14.811Z,85.30
2022-10-10T06:43:41.647Z,85.30
2022-10-10T06:46:10.150Z,85.30
2022-10-10T06:48:37.912Z,85.20
2022-10-10T06:51:18.552Z,85.50
2022-10-10T06:53:46.633Z,84.00
2022-10-10T06:56:26.340Z,84.50
2022-10-10T06:58:54.276Z,84.40
2022-10-10T07:01:23.169Z,80.90
2022-10-10T07:03:50.346Z,84.60
2022-10-10T07:06:18.267Z,85.30
2022-10-10T07:08:45.142Z,85.60
2022-10-10T07:11:12.655Z,86.10
2022-10-10T07:13:39.817Z,86.30
2022-10-10T07:16:07.493Z,86.20
2022-10-10T07:18:37.142Z,86.00
2022-10-10T07:21:04.933Z,85.70
2022-10-10T07:23:32.883Z,84.30
2022-10-10T07:26:04.415Z,82.80
2022-10-10T07:28:31.759Z,81.20
2022-10-10T07:31:03.291Z,80.90
2022-10-10T07:33:48.943Z,79.60
2022-10-10T07:36:17.045Z,77.30
2022-10-10T07:38:43.867Z,78.30
2022-10-10T07:41:13.528Z,78.20
2022-10-10T07:43:40.628Z,77.40
2022-10-10T07:46:16.764Z,77.80
2022-10-10T07:48:44.095Z,75.80
2022-10-10T07:51:12.120Z,77.40
2022-10-10T07:53:40.751Z,77.90
2022-10-10T07:56:09.107Z,77.30
2022-10-10T07:58:36.765Z,77.30
2022-10-10T08:01:10.730Z,77.60
2022-10-10T08:03:38.511Z,76.20
2022-10-10T08:06:08.761Z,77.00
2022-10-10T08:08:44.888Z,76.70
2022-10-10T08:11:18.350Z,76.20
2022-10-10T08:13:45.336Z,76.30
2022-10-10T08:16:12.298Z,76.10
2022-10-10T08:18:39.130Z,75.50
2022-10-10T08:21:10.358Z,74.90
2022-10-10T08:23:37.796Z,73.00
2022-10-10T08:26:08.646Z,71.60
2022-10-10T08:28:36.554Z,70.40
2022-10-10T08:31:09.146Z,70.00
2022-10-10T08:33:37.033Z,67.90
2022-10-10T08:36:10.139Z,70.10
2022-10-10T08:38:37.964Z,66.50
2022-10-10T08:41:42.861Z,69.00
2022-10-10T08:44:47.527Z,65.30
2022-10-10T08:47:44.961Z,63.60
2022-10-10T08:50:34.233Z,61.30
2022-10-10T08:53:03.810Z,62.20
2022-10-10T08:55:39.391Z,65.10
2022-10-10T08:58:11.297Z,63.20
2022-10-10T09:01:10.174Z,64.90
2022-10-10T09:03:55.217Z,61.50
2022-10-10T09:06:30.663Z,62.60
2022-10-10T09:09:06.503Z,62.70
2022-10-10T09:12:18.292Z,64.00
2022-10-10T09:15:10.896Z,59.10
2022-10-10T09:18:39.888Z,62.70
2022-10-10T09:21:18.066Z,53.50
2022-10-10T09:23:58.837Z,61.00
2022-10-10T09:26:31.143Z,60.90
2022-10-10T09:29:25.361Z,60.40
2022-10-10T09:32:17.281Z,58.30
2022-10-10T09:35:12.406Z,52.00
2022-10-10T09:37:48.621Z,55.30
2022-10-10T09:40:33.704Z,59.80
2022-10-10T09:43:15.294Z,57.30
2022-10-10T09:45:52.831Z,53.90
2022-10-10T09:48:24.776Z,55.00
2022-10-10T09:50:51.572Z,56.80
2022-10-10T09:53:18.427Z,56.50
2022-10-10T09:55:47.897Z,55.60
2022-10-10T09:58:31.443Z,53.20
2022-10-10T10:01:18.481Z,50.30
2022-10-10T10:04:34.245Z,44.00
2022-10-10T10:07:37.856Z,48.40
2022-10-10T10:10:27.159Z,47.80
2022-10-10T10:12:55.477Z,45.20
2022-10-10T10:15:25.295Z,50.40
2022-10-10T10:18:16.729Z,50.70
2022-10-10T10:20:53.396Z,49.50
2022-10-10T10:23:36.729Z,52.70
2022-10-10T10:26:20.045Z,50.60
2022-10-10T10:28:49.032Z,49.40
2022-10-10T10:31:56.868Z,53.20
2022-10-10T10:34:52.106Z,46.00
2022-10-10T10:37:47.593Z,52.30
2022-10-10T10:40:41.656Z,49.40
2022-10-10T10:43:55.111Z,51.20
2022-10-10T10:46:51.578Z,50.10
2022-10-10T10:49:28.389Z,51.30
2022-10-10T10:52:36.229Z,53.30
2022-10-10T10:56:05.187Z,50.80
2022-10-10T10:59:34.510Z,52.20
2022-10-10T11:02:37.023Z,52.90
2022-10-10T11:05:56.320Z,50.30
2022-10-10T11:09:04.865Z,51.50
2022-10-10T11:12:17.644Z,52.40
2022-10-10T11:14:50.550Z,51.90
2022-10-10T11:17:37.256Z,54.90
2022-10-10T11:20:22.019Z,52.80
2022-10-10T11:26:02.071Z,53.90
2022-10-10T11:28:51.127Z,54.80
2022-10-10T11:31:59.350Z,49.70
2022-10-10T11:34:58.180Z,52.70
2022-10-10T11:37:31.745Z,52.20
2022-10-10T11:40:05.208Z,54.00
2022-10-10T11:42:52.794Z,53.50
2022-10-10T11:45:34.575Z,50.20
2022-10-10T11:48:21.208Z,52.30
2022-10-10T11:50:59.634Z,52.00
2022-10-10T11:53:44.581Z,52.20
2022-10-10T11:56:37.210Z,50.10
2022-10-10T11:59:30.590Z,49.70
2022-10-10T12:02:01.687Z,49.40
2022-10-10T12:04:38.112Z,52.00
2022-10-10T12:07:13.711Z,49.70
2022-10-10T12:09:54.281Z,51.50
2022-10-10T12:12:32.374Z,50.90
2022-10-10T12:15:03.618Z,48.90
2022-10-10T12:17:39.783Z,53.70
2022-10-10T12:20:37.095Z,53.80
2022-10-10T12:23:29.789Z,52.60
2022-10-10T12:25:56.726Z,53.00
2022-10-10T12:28:57.632Z,54.60
2022-10-10T12:31:37.256Z,52.90
2022-10-10T12:34:40.560Z,53.30
2022-10-10T12:37:21.685Z,52.60
2022-10-10T12:40:20.726Z,51.90
2022-10-10T12:42:47.413Z,51.30
2022-10-10T12:45:29.598Z,53.70
2022-10-10T12:48:05.927Z,51.40
2022-10-10T12:50:41.927Z,53.90
2022-10-10T12:53:23.038Z,52.70
2022-10-10T12:55:58.058Z,52.20
2022-10-10T12:58:28.568Z,53.20
2022-10-10T13:00:57.981Z,53.60
2022-10-10T13:03:32.609Z,53.20
2022-10-10T13:06:19.810Z,54.00
2022-10-10T13:08:47.586Z,53.70
2022-10-10T13:11:15.981Z,54.90
2022-10-10T13:13:56.255Z,54.70
2022-10-10T13:16:33.490Z,53.30
2022-10-10T13:19:01.123Z,52.70
2022-10-10T13:21:33.991Z,54.10
2022-10-10T13:24:05.714Z,53.10
2022-10-10T13:26:39.338Z,53.60
2022-10-10T13:29:30.276Z,51.60
2022-10-10T13:32:24.015Z,51.80
2022-10-10T13:34:58.168Z,52.50
2022-10-10T13:37:26.153Z,53.90
2022-10-10T13:39:54.422Z,54.70
2022-10-10T13:42:31.700Z,54.70
2022-10-10T13:45:03.176Z,53.50
2022-10-10T13:47:57.695Z,55.20
2022-10-10T13:50:53.349Z,53.50
2022-10-10T13:53:30.172Z,55.40
2022-10-10T13:56:06.089Z,53.80
2022-10-10T13:58:52.338Z,55.30
2022-10-10T14:01:28.933Z,54.90
2022-10-10T14:04:16.379Z,55.10
2022-10-10T14:07:01.873Z,55.00
2022-10-10T14:09:41.206Z,54.30
2022-10-10T14:12:20.689Z,54.60
2022-10-10T14:14:52.190Z,54.60
2022-10-10T14:17:19.540Z,55.70
2022-10-10T14:19:47.922Z,55.90
2022-10-10T14:22:14.866Z,56.00
2022-10-10T14:24:41.685Z,56.10
2022-10-10T14:27:24.896Z,56.10
2022-10-10T14:29:54.388Z,54.90
2022-10-10T14:32:22.565Z,56.30
2022-10-10T14:34:49.455Z,56.30
2022-10-10T14:37:28.604Z,56.50
2022-10-10T14:39:56.491Z,55.10
2022-10-10T14:42:25.744Z,56.60
2022-10-10T14:44:52.667Z,56.50
2022-10-10T14:47:22.997Z,56.70
2022-10-10T14:49:50.021Z,56.70
2022-10-10T14:52:16.872Z,57.10
2022-10-10T14:54:43.716Z,57.20
2022-10-10T14:57:13.316Z,57.40
2022-10-10T14:59:45.925Z,57.40
2022-10-10T15:02:16.145Z,57.80
2022-10-10T15:04:42.942Z,58.00
2022-10-10T15:07:13.822Z,57.90
2022-10-10T15:09:56.551Z,57.90
2022-10-10T15:12:29.198Z,57.80
2022-10-10T15:14:56.038Z,57.70
2022-10-10T15:17:24.340Z,57.60
2022-10-10T15:19:52.182Z,57.70
2022-10-10T15:22:19.540Z,57.80
2022-10-10T15:24:46.337Z,57.90
2022-10-10T15:27:13.521Z,57.90
2022-10-10T15:29:40.365Z,58.20
2022-10-10T15:32:07.722Z,58.20
2022-10-10T15:34:35.064Z,58.40
2022-10-10T15:37:02.490Z,58.40
2022-10-10T15:39:30.882Z,58.60
2022-10-10T15:41:57.928Z,58.60
2022-10-10T15:44:24.908Z,58.60
2022-10-10T15:46:52.146Z,58.60
2022-10-10T15:49:19.452Z,58.80
2022-10-10T15:51:47.422Z,58.90
2022-10-10T15:54:15.199Z,59.00
2022-10-10T15:56:42.447Z,59.10
2022-10-10T15:59:13.317Z,59.20
2022-10-10T16:01:40.427Z,59.40
2022-10-10T16:04:07.377Z,59.70
2022-10-10T16:06:34.219Z,59.50
2022-10-10T16:09:23.553Z,59.80
2022-10-10T16:11:49.098Z,59.80
2022-10-10T16:14:16.302Z,59.90
2022-10-10T16:16:43.218Z,60.10
2022-10-10T16:19:10.120Z,60.30
2022-10-10T16:21:37.086Z,60.40
2022-10-10T16:24:04.589Z,60.60
2022-10-10T16:26:33.553Z,60.70
2022-10-10T16:29:01.629Z,60.90
2022-10-10T16:31:29.850Z,60.90
2022-10-10T16:33:59.333Z,61.10
2022-10-10T16:36:30.766Z,61.30
2022-10-10T16:38:59.130Z,61.40
2022-10-10T16:41:48.706Z,61.70
2022-10-10T16:44:17.607Z,62.00
2022-10-10T16:46:45.212Z,62.00
2022-10-10T16:49:20.389Z,62.20
2022-10-10T16:51:47.274Z,62.50
2022-10-10T16:54:14.215Z,62.70
2022-10-10T16:56:41.926Z,62.70
2022-10-10T16:59:09.111Z,62.90
2022-10-10T17:01:36.209Z,63.20
2022-10-10T17:04:04.201Z,63.50
2022-10-10T17:06:37.432Z,63.80
2022-10-10T17:09:07.942Z,63.90
2022-10-10T17:11:35.478Z,64.00
2022-10-10T17:14:02.391Z,64.30
2022-10-10T17:19:17.697Z,64.80
2022-10-10T17:21:44.629Z,64.80
2022-10-10T17:24:14.533Z,65.00
2022-10-10T17:26:41.727Z,65.20
2022-10-10T17:29:08.778Z,65.30
2022-10-10T17:31:36.202Z,65.30
2022-10-10T17:34:03.340Z,65.50
2022-10-10T17:36:30.992Z,65.60
2022-10-10T17:39:00.242Z,65.80
2022-10-10T17:41:28.376Z,65.90
2022-10-10T17:43:55.949Z,66.00
2022-10-10T17:46:34.828Z,66.00
2022-10-10T17:49:07.836Z,66.20
2022-10-10T17:51:36.961Z,66.20
2022-10-10T17:54:06.472Z,66.20
2022-10-10T17:56:34.178Z,66.30
2022-10-10T17:59:01.862Z,66.40
2022-10-10T18:01:32.516Z,66.60
2022-10-10T18:04:04.171Z,66.70
2022-10-10T18:06:33.051Z,66.80
2022-10-10T18:09:02.464Z,67.00
2022-10-10T18:11:31.609Z,67.20
2022-10-10T18:14:01.657Z,67.30
2022-10-10T18:16:33.959Z,67.40
2022-10-10T18:19:03.384Z,67.50
2022-10-10T18:21:30.250Z,67.60
2022-10-10T18:23:57.207Z,68.20
2022-10-10T18:26:26.948Z,67.80
2022-10-10T18:28:55.954Z,67.80
2022-10-10T18:31:33.681Z,67.80
2022-10-10T18:34:02.462Z,68.00
2022-10-10T18:36:35.965Z,67.80
2022-10-10T18:39:10.924Z,67.90
2022-10-10T18:41:38.140Z,67.90
2022-10-10T18:44:10.632Z,67.80
2022-10-10T18:46:38.638Z,68.00
2022-10-10T18:49:09.036Z,68.00
2022-10-10T18:51:37.532Z,68.10
2022-10-10T18:54:08.838Z,68.00
2022-10-10T18:56:39.020Z,68.10
2022-10-10T18:59:10.889Z,68.10
2022-10-10T19:01:40.065Z,68.10
2022-10-10T19:04:09.808Z,68.10
2022-10-10T19:06:38.891Z,68.20
2022-10-10T19:09:09.760Z,68.20
2022-10-10T19:11:41.907Z,68.30
2022-10-10T19:14:13.718Z,67.90
2022-10-10T19:16:43.191Z,68.10
2022-10-10T19:19:13.731Z,68.20
2022-10-10T19:21:40.851Z,68.30
2022-10-10T19:24:09.435Z,68.40
2022-10-10T19:26:37.184Z,68.50
2022-10-10T19:29:08.481Z,68.50
2022-10-10T19:31:40.572Z,68.70
2022-10-10T19:34:07.788Z,68.70
2022-10-10T19:36:38.498Z,68.60
2022-10-10T19:39:07.810Z,68.70
2022-10-10T19:41:34.981Z,68.70
2022-10-10T19:44:05.248Z,68.80
2022-10-10T19:46:36.733Z,68.90
2022-10-10T19:49:04.994Z,69.00
2022-10-10T19:51:31.942Z,69.00
2022-10-10T19:53:58.960Z,69.10
2022-10-10T19:56:26.763Z,69.30
2022-10-10T19:58:56.810Z,69.50
2022-10-10T20:01:29.259Z,69.70
2022-10-10T20:03:57.775Z,69.70
2022-10-10T20:06:25.437Z,70.40
2022-10-10T20:08:52.435Z,69.90
2022-10-10T20:11:20.234Z,70.00
2022-10-10T20:13:51.789Z,70.00
2022-10-10T20:16:18.838Z,70.00
2022-10-10T20:18:45.766Z,70.10
2022-10-10T20:21:29.547Z,70.20
2022-10-10T20:23:58.732Z,70.70
2022-10-10T20:26:27.768Z,70.30
2022-10-10T20:28:56.935Z,70.40
2022-10-10T20:31:28.298Z,70.40
2022-10-10T20:33:58.798Z,70.60
2022-10-10T20:36:26.961Z,70.70
2022-10-10T20:38:57.034Z,70.70
2022-10-10T20:41:26.696Z,70.70
2022-10-10T20:43:59.297Z,70.80
2022-10-10T20:46:30.636Z,70.90
2022-10-10T20:49:00.486Z,71.00
2022-10-10T20:51:29.816Z,71.10
2022-10-10T20:54:03.922Z,71.20
2022-10-10T20:56:33.451Z,71.70
2022-10-10T20:59:01.206Z,71.40
2022-10-10T21:01:30.486Z,71.50
2022-10-10T21:03:58.697Z,71.70
2022-10-10T21:06:34.359Z,71.70
2022-10-10T21:09:05.665Z,72.10
2022-10-10T21:11:33.419Z,71.80
2022-10-10T21:14:01.589Z,71.80
2022-10-10T21:16:34.199Z,71.90
2022-10-10T21:19:01.692Z,72.00
2022-10-10T21:21:32.508Z,71.70
2022-10-10T21:23:59.696Z,71.70
2022-10-10T21:26:28.812Z,71.40
2022-10-10T21:28:57.426Z,71.50
2022-10-10T21:31:34.320Z,71.60
2022-10-10T21:34:03.946Z,71.80
2022-10-10T21:36:31.972Z,71.90
2022-10-10T21:39:00.946Z,72.00
2022-10-10T21:41:28.967Z,72.20
2022-10-10T21:43:58.696Z,72.30
2022-10-10T21:46:36.247Z,72.50
2022-10-10T21:49:08.970Z,72.60
2022-10-10T21:51:45.571Z,72.60
2022-10-10T21:54:13.231Z,72.90
2022-10-10T21:56:40.787Z,72.70
2022-10-10T21:59:08.084Z,72.80
2022-10-10T22:01:37.357Z,72.90
2022-10-10T22:04:05.120Z,73.00
2022-10-10T22:06:32.198Z,73.10
2022-10-10T22:09:01.150Z,73.10
2022-10-10T22:11:31.539Z,73.10
2022-10-10T22:13:58.571Z,73.20
2022-10-10T22:16:25.406Z,73.00
2022-10-10T22:18:57.185Z,72.90
2022-10-10T22:21:30.034Z,73.00
2022-10-10T22:23:59.407Z,72.90
2022-10-10T22:26:26.248Z,73.00
2022-10-10T22:28:53.429Z,73.00
2022-10-10T22:31:20.264Z,73.00
2022-10-10T22:33:47.147Z,73.10
2022-10-10T22:36:13.990Z,73.10
2022-10-10T22:38:44.788Z,73.00
2022-10-10T22:41:12.940Z,72.80
2022-10-10T22:43:40.017Z,72.50
2022-10-10T22:46:07.648Z,72.40
2022-10-10T22:48:35.375Z,72.50
2022-10-10T22:51:06.552Z,72.60
2022-10-10T22:53:34.168Z,72.70
2022-10-10T22:56:01.668Z,72.80
2022-10-10T22:58:28.724Z,72.90
2022-10-10T23:00:55.749Z,73.20
2022-10-10T23:03:22.615Z,73.50
2022-10-10T23:05:49.462Z,73.70
2022-10-10T23:08:16.376Z,74.10
2022-10-10T23:10:44.528Z,74.30
2022-10-10T23:13:11.704Z,74.60
2022-10-10T23:15:39.060Z,74.80
2022-10-10T23:18:06.493Z,74.90
2022-10-10T23:20:33.970Z,75.00
2022-10-10T23:23:00.836Z,75.10
2022-10-10T23:25:27.701Z,75.00
2022-10-10T23:27:54.561Z,74.80
2022-10-10T23:30:21.675Z,74.50
2022-10-10T23:32:48.529Z,74.10
2022-10-10T23:35:15.429Z,73.90
2022-10-10T23:37:45.222Z,74.10
2022-10-10T23:40:12.022Z,73.50
2022-10-10T23:42:38.820Z,73.50
2022-10-10T23:45:06.294Z,73.50
2022-10-10T23:47:33.131Z,73.70
2022-10-10T23:50:00.255Z,73.80
2022-10-10T23:52:27.127Z,73.90
2022-10-10T23:54:53.899Z,74.00
2022-10-10T23:57:20.703Z,74.20
2022-10-10T23:59:47.562Z,74.20
